Time;durP1;ratioP1;P1;durP2;ratioP2;P2;SDS_P1;SDS_P2;PMS_P1;PMS_P2;Temp;Humidity;BMP_temperature;BMP_pressure;BME280_temperature;BME280_humidity;BME280_pressure;Samples;Min_cycle;Max_cycle;Signal;HPM_P1;HPM_P2
2024/03/26 00:03:24;;;;;;;9.02;6.82;;;;;;;;;;10007378;28;20585;-94
2024/03/26 00:08:17;;;;;;;6.97;5.38;;;;;;;;;;10006399;28;20498;-94
2024/03/26 00:13:10;;;;;;;18.35;12.10;;;;;;;;;;10000054;28;20121;-95
2024/03/26 00:18:02;;;;;;;8.15;6.82;;;;;;;;;;10005953;28;20085;-95
2024/03/26 00:22:54;;;;;;;9.77;6.93;;;;;;;;;;10005379;28;20577;-96
2024/03/26 00:27:47;;;;;;;7.50;6.68;;;;;;;;;;10003893;28;20081;-95
2024/03/26 00:32:41;;;;;;;10.18;7.47;;;;;;;;;;10005447;28;20092;-93
2024/03/26 00:37:33;;;;;;;8.18;7.38;;;;;;;;;;9988319;28;20045;-94
2024/03/26 00:42:25;;;;;;;10.77;6.88;;;;;;;;;;10011002;28;20057;-94
2024/03/26 00:47:18;;;;;;;8.10;6.53;;;;;;;;;;9996579;28;20107;-95
2024/03/26 00:52:11;;;;;;;15.18;6.63;;;;;;;;;;10007840;28;20058;-95
2024/03/26 00:57:03;;;;;;;8.20;7.20;;;;;;;;;;10000413;28;20120;-95
2024/03/26 01:01:56;;;;;;;8.25;6.57;;;;;;;;;;10008060;28;20145;-94
2024/03/26 01:06:49;;;;;;;8.82;6.32;;;;;;;;;;10013413;28;20129;-96
2024/03/26 01:11:41;;;;;;;10.13;6.82;;;;;;;;;;10008249;28;20062;-93
2024/03/26 01:16:34;;;;;;;9.65;7.05;;;;;;;;;;10006973;28;20054;-95
2024/03/26 01:21:26;;;;;;;6.38;5.78;;;;;;;;;;10002689;28;20050;-96
2024/03/26 01:26:19;;;;;;;11.05;7.88;;;;;;;;;;10004269;28;20103;-96
2024/03/26 01:31:11;;;;;;;8.45;6.47;;;;;;;;;;10010524;28;20111;-94
2024/03/26 01:36:06;;;;;;;7.15;6.10;;;;;;;;;;10011341;28;20075;-94
2024/03/26 01:40:59;;;;;;;8.45;6.00;;;;;;;;;;10012516;28;20057;-94
2024/03/26 01:45:51;;;;;;;9.63;6.70;;;;;;;;;;10003999;28;20060;-95
2024/03/26 01:50:43;;;;;;;8.32;5.50;;;;;;;;;;10003064;28;20046;-95
2024/03/26 01:55:35;;;;;;;7.30;5.68;;;;;;;;;;9988875;28;20059;-94
2024/03/26 02:00:30;;;;;;;10.52;8.00;;;;;;;;;;9993263;28;20129;-94
2024/03/26 02:05:23;;;;;;;13.02;8.10;;;;;;;;;;10005448;28;20057;-95
2024/03/26 02:10:16;;;;;;;9.13;8.23;;;;;;;;;;10011373;28;20084;-95
2024/03/26 02:15:09;;;;;;;9.25;6.88;;;;;;;;;;10011259;28;20516;-95
2024/03/26 02:20:01;;;;;;;8.48;7.57;;;;;;;;;;10010053;28;20395;-95
2024/03/26 02:24:54;;;;;;;9.55;8.55;;;;;;;;;;9994472;28;20054;-95
2024/03/26 02:29:46;;;;;;;13.70;8.73;;;;;;;;;;10010645;28;20066;-95
2024/03/26 02:34:39;;;;;;;9.90;8.30;;;;;;;;;;10010294;28;20052;-93
2024/03/26 02:39:32;;;;;;;9.40;7.68;;;;;;;;;;10010014;28;20053;-95
2024/03/26 02:44:25;;;;;;;11.13;7.07;;;;;;;;;;10006518;28;20145;-94
2024/03/26 02:49:18;;;;;;;9.75;8.60;;;;;;;;;;10007781;28;20433;-94
2024/03/26 02:54:12;;;;;;;11.68;7.65;;;;;;;;;;10009443;28;20133;-94
2024/03/26 02:59:04;;;;;;;9.82;8.82;;;;;;;;;;10007102;28;20050;-94
2024/03/26 03:03:58;;;;;;;13.10;8.63;;;;;;;;;;9997737;28;20066;-95
2024/03/26 03:08:50;;;;;;;11.50;8.60;;;;;;;;;;10007197;28;20056;-94
2024/03/26 03:13:42;;;;;;;12.48;9.45;;;;;;;;;;9995829;28;20057;-96
2024/03/26 03:18:34;;;;;;;12.00;9.32;;;;;;;;;;10005433;28;20057;-94
2024/03/26 03:23:26;;;;;;;11.18;9.65;;;;;;;;;;10008660;28;20145;-93
2024/03/26 03:28:19;;;;;;;10.10;8.10;;;;;;;;;;10008295;28;20096;-94
2024/03/26 03:33:11;;;;;;;16.05;7.85;;;;;;;;;;10007583;28;20441;-94
2024/03/26 03:38:03;;;;;;;10.90;9.90;;;;;;;;;;10007574;28;20058;-94
2024/03/26 03:42:55;;;;;;;10.70;9.23;;;;;;;;;;10007178;28;20095;-93
2024/03/26 03:47:47;;;;;;;14.80;10.30;;;;;;;;;;10006272;28;20072;-94
2024/03/26 03:52:41;;;;;;;13.88;10.57;;;;;;;;;;10004761;28;20093;-93
2024/03/26 03:57:33;;;;;;;11.13;9.95;;;;;;;;;;10008429;28;20125;-94
2024/03/26 04:02:26;;;;;;;10.07;9.13;;;;;;;;;;10009772;28;20059;-95
2024/03/26 04:07:19;;;;;;;12.40;9.07;;;;;;;;;;9996523;28;20421;-96
2024/03/26 04:12:12;;;;;;;11.75;10.18;;;;;;;;;;10005606;28;20076;-95
2024/03/26 04:17:05;;;;;;;10.43;9.32;;;;;;;;;;10009629;28;20518;-95
2024/03/26 04:21:57;;;;;;;10.95;8.48;;;;;;;;;;10009874;28;20514;-95
2024/03/26 04:26:50;;;;;;;9.60;8.32;;;;;;;;;;9999427;28;20137;-95
2024/03/26 04:31:43;;;;;;;11.93;9.30;;;;;;;;;;10003309;28;20057;-95
2024/03/26 04:36:36;;;;;;;9.45;7.95;;;;;;;;;;10007584;28;20060;-94
2024/03/26 04:41:29;;;;;;;10.48;9.05;;;;;;;;;;10007913;28;20424;-94
2024/03/26 04:46:22;;;;;;;13.70;8.27;;;;;;;;;;10006027;28;20081;-94
2024/03/26 04:51:14;;;;;;;10.13;8.77;;;;;;;;;;10007654;28;20144;-94
2024/03/26 04:56:06;;;;;;;10.05;8.88;;;;;;;;;;9989521;28;20064;-95
2024/03/26 05:00:59;;;;;;;10.27;9.15;;;;;;;;;;10005744;28;20045;-94
2024/03/26 05:05:52;;;;;;;12.07;10.45;;;;;;;;;;10009028;28;20053;-94
2024/03/26 05:10:45;;;;;;;13.25;10.07;;;;;;;;;;10013507;28;20054;-93
2024/03/26 05:15:38;;;;;;;12.52;9.65;;;;;;;;;;10010903;28;20449;-95
2024/03/26 05:20:31;;;;;;;9.57;8.57;;;;;;;;;;10012977;28;20589;-95
2024/03/26 05:25:23;;;;;;;13.48;10.30;;;;;;;;;;10013281;28;20064;-94
2024/03/26 05:30:16;;;;;;;12.48;10.48;;;;;;;;;;9996549;28;20046;-96
2024/03/26 05:35:09;;;;;;;11.13;10.02;;;;;;;;;;10013931;28;20197;-95
2024/03/26 05:40:01;;;;;;;10.43;9.32;;;;;;;;;;10003862;28;20076;-94
2024/03/26 05:44:54;;;;;;;13.60;10.35;;;;;;;;;;10009884;28;20078;-93
2024/03/26 05:49:46;;;;;;;11.98;10.75;;;;;;;;;;9988012;28;20136;-94
2024/03/26 05:54:38;;;;;;;12.65;10.52;;;;;;;;;;10002522;28;20537;-94
2024/03/26 05:59:31;;;;;;;10.80;9.77;;;;;;;;;;10013102;28;20077;-94
2024/03/26 06:04:23;;;;;;;19.05;12.88;;;;;;;;;;10011471;28;20060;-94
2024/03/26 06:09:16;;;;;;;11.73;10.45;;;;;;;;;;10004171;28;20054;-94
2024/03/26 06:19:41;;;;;;;10.85;9.75;;;;;;;;;;10094796;27;20509;-72
2024/03/26 06:24:35;;;;;;;11.23;10.13;;;;;;;;;;10039762;28;20056;-73
2024/03/26 06:29:28;;;;;;;15.77;10.48;;;;;;;;;;10041804;28;20103;-70
2024/03/26 06:34:20;;;;;;;13.00;10.80;;;;;;;;;;10041943;28;20125;-71
2024/03/26 06:39:17;;;;;;;13.52;11.20;;;;;;;;;;10041698;28;20570;-71
2024/03/26 06:44:10;;;;;;;11.75;10.48;;;;;;;;;;10041631;28;20077;-71
2024/03/26 06:49:02;;;;;;;15.13;11.88;;;;;;;;;;10040839;28;20639;-70
2024/03/26 06:53:55;;;;;;;15.25;11.88;;;;;;;;;;10041317;28;20062;-71
2024/03/26 06:58:47;;;;;;;16.42;11.18;;;;;;;;;;10032008;28;20450;-71
2024/03/26 07:03:40;;;;;;;18.13;13.25;;;;;;;;;;10040888;28;20077;-71
2024/03/26 07:08:33;;;;;;;19.10;11.38;;;;;;;;;;10040542;28;20038;-71
2024/03/26 07:13:27;;;;;;;14.77;12.23;;;;;;;;;;10039779;28;20054;-71
2024/03/26 07:18:19;;;;;;;11.90;10.52;;;;;;;;;;10041881;28;20057;-70
2024/03/26 07:23:11;;;;;;;15.15;12.35;;;;;;;;;;10052647;28;20132;-71
2024/03/26 07:28:04;;;;;;;13.45;12.02;;;;;;;;;;10041864;28;20120;-71
2024/03/26 07:32:56;;;;;;;13.40;11.98;;;;;;;;;;10025851;28;20096;-71
2024/03/26 07:37:49;;;;;;;13.93;11.07;;;;;;;;;;10026155;28;20056;-71
2024/03/26 07:42:42;;;;;;;13.93;12.20;;;;;;;;;;10012621;28;20066;-70
2024/03/26 07:47:37;;;;;;;13.05;11.75;;;;;;;;;;10027045;28;20058;-71
2024/03/26 07:52:29;;;;;;;15.82;12.90;;;;;;;;;;10025561;28;20172;-71
2024/03/26 07:57:22;;;;;;;12.95;11.75;;;;;;;;;;10026230;28;20069;-71
2024/03/26 08:02:16;;;;;;;14.63;13.13;;;;;;;;;;10026210;28;20148;-71
2024/03/26 08:07:09;;;;;;;19.27;13.15;;;;;;;;;;10026272;28;20052;-71
2024/03/26 08:12:01;;;;;;;14.00;12.63;;;;;;;;;;10026132;28;20136;-71
2024/03/26 08:16:54;;;;;;;14.90;13.30;;;;;;;;;;10023534;28;20085;-70
2024/03/26 08:21:46;;;;;;;14.52;13.13;;;;;;;;;;10009337;28;20136;-71
2024/03/26 08:26:39;;;;;;;14.65;13.23;;;;;;;;;;10009621;28;20085;-71
2024/03/26 08:31:30;;;;;;;18.13;12.90;;;;;;;;;;10009173;28;20056;-71
2024/03/26 08:36:23;;;;;;;14.18;12.68;;;;;;;;;;10007869;28;20474;-71
2024/03/26 08:41:16;;;;;;;15.02;13.48;;;;;;;;;;10009777;28;20045;-71
2024/03/26 08:46:09;;;;;;;14.27;12.80;;;;;;;;;;9994160;28;20520;-71
2024/03/26 08:51:01;;;;;;;17.63;13.57;;;;;;;;;;10010278;28;20046;-71
2024/03/26 08:55:53;;;;;;;15.73;14.25;;;;;;;;;;10010587;28;20046;-70
2024/03/26 09:00:45;;;;;;;17.98;16.13;;;;;;;;;;10010197;28;20049;-71
2024/03/26 09:05:37;;;;;;;17.30;15.50;;;;;;;;;;9993280;28;20057;-70
2024/03/26 09:10:29;;;;;;;22.08;16.55;;;;;;;;;;10010420;28;20447;-70
2024/03/26 09:15:22;;;;;;;16.30;13.57;;;;;;;;;;10009324;28;20060;-71
2024/03/26 09:20:15;;;;;;;17.00;13.30;;;;;;;;;;10008280;28;20088;-70
2024/03/26 09:25:09;;;;;;;16.70;13.73;;;;;;;;;;10006818;28;20046;-71
2024/03/26 09:30:02;;;;;;;16.35;14.57;;;;;;;;;;10006873;28;20088;-71
2024/03/26 09:34:55;;;;;;;16.80;14.15;;;;;;;;;;10005892;28;20544;-71
2024/03/26 09:39:48;;;;;;;17.55;15.02;;;;;;;;;;10006860;28;20046;-71
2024/03/26 09:44:43;;;;;;;16.48;14.73;;;;;;;;;;10006380;28;20064;-71
2024/03/26 09:49:35;;;;;;;17.60;13.55;;;;;;;;;;10001698;28;20077;-71
2024/03/26 09:54:28;;;;;;;16.25;14.65;;;;;;;;;;9990898;28;20077;-71
2024/03/26 09:59:21;;;;;;;15.10;13.20;;;;;;;;;;10001947;28;20042;-71
2024/03/26 10:04:14;;;;;;;18.55;15.25;;;;;;;;;;10004647;28;20410;-72
2024/03/26 10:09:07;;;;;;;15.77;13.50;;;;;;;;;;10005119;28;20050;-71
2024/03/26 10:14:00;;;;;;;19.55;13.40;;;;;;;;;;10005242;28;20144;-71
2024/03/26 10:18:53;;;;;;;15.27;10.80;;;;;;;;;;10015029;28;20058;-71
2024/03/26 10:23:45;;;;;;;12.40;9.95;;;;;;;;;;10020602;28;20049;-72
2024/03/26 10:28:38;;;;;;;13.13;10.70;;;;;;;;;;10022695;28;20139;-72
2024/03/26 10:33:30;;;;;;;13.93;12.40;;;;;;;;;;10020477;28;20149;-71
2024/03/26 10:38:24;;;;;;;29.65;24.75;;;;;;;;;;10021252;28;20058;-71
2024/03/26 10:43:17;;;;;;;17.52;15.70;;;;;;;;;;10021557;28;20347;-71
2024/03/26 10:48:09;;;;;;;16.98;15.27;;;;;;;;;;10021202;28;20480;-71
2024/03/26 10:53:04;;;;;;;16.33;14.07;;;;;;;;;;10021137;28;20050;-71
2024/03/26 10:57:56;;;;;;;18.98;15.10;;;;;;;;;;10021285;28;20045;-72
2024/03/26 11:02:52;;;;;;;16.17;14.48;;;;;;;;;;10023004;28;20046;-72
2024/03/26 11:07:45;;;;;;;14.05;12.65;;;;;;;;;;10028741;28;20056;-72
2024/03/26 11:12:39;;;;;;;25.50;20.58;;;;;;;;;;10028006;28;20502;-70
2024/03/26 11:17:32;;;;;;;21.55;16.95;;;;;;;;;;10027751;28;20064;-72
2024/03/26 11:22:24;;;;;;;19.70;15.32;;;;;;;;;;10014801;28;20479;-72
2024/03/26 11:27:17;;;;;;;19.48;17.50;;;;;;;;;;10045150;28;20048;-71
2024/03/26 11:32:10;;;;;;;20.83;18.55;;;;;;;;;;10050783;28;20041;-71
2024/03/26 11:37:03;;;;;;;17.13;15.35;;;;;;;;;;10050153;28;20176;-71
2024/03/26 11:41:56;;;;;;;18.63;13.80;;;;;;;;;;10035084;28;20421;-71
2024/03/26 11:46:48;;;;;;;17.08;15.20;;;;;;;;;;10050047;28;20455;-71
2024/03/26 11:51:41;;;;;;;16.20;14.50;;;;;;;;;;10049976;28;20053;-71
2024/03/26 11:56:33;;;;;;;13.18;11.70;;;;;;;;;;10049979;28;20099;-72
2024/03/26 12:01:26;;;;;;;18.60;13.90;;;;;;;;;;10049170;28;20052;-71
2024/03/26 12:06:20;;;;;;;20.50;15.93;;;;;;;;;;10048813;28;20136;-71
2024/03/26 12:11:12;;;;;;;18.00;14.57;;;;;;;;;;10048329;28;20465;-71
2024/03/26 12:16:05;;;;;;;16.48;14.43;;;;;;;;;;10033691;28;20577;-71
2024/03/26 12:20:58;;;;;;;24.25;17.92;;;;;;;;;;10048869;28;20044;-71
2024/03/26 12:25:50;;;;;;;17.95;16.05;;;;;;;;;;10048403;28;20041;-71
2024/03/26 12:30:43;;;;;;;16.60;14.27;;;;;;;;;;10047503;28;20065;-71
2024/03/26 12:35:35;;;;;;;17.67;15.88;;;;;;;;;;10047637;28;20116;-71
2024/03/26 12:40:27;;;;;;;26.13;19.05;;;;;;;;;;10048740;28;20046;-71
2024/03/26 12:45:20;;;;;;;22.83;18.77;;;;;;;;;;10048057;28;20593;-71
2024/03/26 12:50:11;;;;;;;15.48;13.85;;;;;;;;;;10046785;28;20057;-71
2024/03/26 12:55:04;;;;;;;14.70;13.15;;;;;;;;;;10047308;28;20141;-71
2024/03/26 12:59:57;;;;;;;18.75;16.90;;;;;;;;;;10046303;28;20419;-71
2024/03/26 13:04:51;;;;;;;12.15;10.93;;;;;;;;;;10049225;28;20132;-71
2024/03/26 13:09:44;;;;;;;13.75;12.32;;;;;;;;;;10046952;28;20422;-71
2024/03/26 13:14:36;;;;;;;17.50;14.73;;;;;;;;;;10046182;28;20052;-71
2024/03/26 13:19:28;;;;;;;41.10;32.03;;;;;;;;;;10062259;28;20414;-71
2024/03/26 13:24:21;;;;;;;32.78;26.85;;;;;;;;;;10056492;28;20052;-70
2024/03/26 13:29:14;;;;;;;33.63;25.38;;;;;;;;;;10046438;28;20045;-69
2024/03/26 13:34:06;;;;;;;21.45;19.15;;;;;;;;;;10061469;28;20141;-70
2024/03/26 13:38:59;;;;;;;22.60;20.23;;;;;;;;;;10057111;28;20107;-72
2024/03/26 13:43:53;;;;;;;22.95;20.55;;;;;;;;;;10058580;28;20049;-70
2024/03/26 13:48:46;;;;;;;23.65;21.45;;;;;;;;;;10057025;28;20100;-73
2024/03/26 13:53:39;;;;;;;16.73;15.23;;;;;;;;;;10053487;28;20041;-70
2024/03/26 13:58:32;;;;;;;15.88;14.27;;;;;;;;;;10060660;28;20045;-70
2024/03/26 14:03:25;;;;;;;15.90;13.35;;;;;;;;;;10060359;28;20042;-70
2024/03/26 14:08:17;;;;;;;17.33;14.68;;;;;;;;;;10055401;28;20049;-69
2024/03/26 14:13:09;;;;;;;13.50;12.30;;;;;;;;;;10055633;28;59176;-70
2024/03/26 14:18:02;;;;;;;14.35;12.93;;;;;;;;;;10050995;28;20070;-71
2024/03/26 14:22:54;;;;;;;13.05;11.85;;;;;;;;;;10060554;28;20041;-71
2024/03/26 14:27:47;;;;;;;13.63;12.25;;;;;;;;;;10056602;28;20053;-71
2024/03/26 14:32:39;;;;;;;12.38;11.18;;;;;;;;;;10043689;28;20386;-71
2024/03/26 14:37:36;;;;;;;14.55;12.18;;;;;;;;;;10054662;28;20046;-70
2024/03/26 14:42:28;;;;;;;11.57;10.38;;;;;;;;;;10065839;28;20481;-71
2024/03/26 14:47:21;;;;;;;12.68;11.48;;;;;;;;;;10058961;28;20107;-71
2024/03/26 14:52:14;;;;;;;10.60;9.68;;;;;;;;;;10061981;28;20107;-70
2024/03/26 14:57:05;;;;;;;8.93;8.13;;;;;;;;;;10063066;28;20063;-71
2024/03/26 15:01:57;;;;;;;10.30;9.25;;;;;;;;;;10064073;28;20049;-71
2024/03/26 15:06:50;;;;;;;13.05;11.70;;;;;;;;;;10062067;28;20046;-71
2024/03/26 15:11:43;;;;;;;8.65;6.97;;;;;;;;;;10066434;28;20362;-70
2024/03/26 15:16:36;;;;;;;8.45;7.65;;;;;;;;;;10059675;28;20049;-71
2024/03/26 15:21:27;;;;;;;7.82;7.13;;;;;;;;;;10043424;28;20486;-70
2024/03/26 15:26:20;;;;;;;8.95;8.15;;;;;;;;;;10037918;28;20363;-70
2024/03/26 15:36:22;;;;;;;9.63;7.43;;;;;;;;;;10042263;28;20387;-71
2024/03/26 15:41:14;;;;;;;10.88;8.70;;;;;;;;;;10036407;28;20053;-71
2024/03/26 15:46:06;;;;;;;9.15;8.35;;;;;;;;;;10029790;28;20049;-71
2024/03/26 15:50:59;;;;;;;12.60;11.13;;;;;;;;;;10042431;28;20111;-70
2024/03/26 15:55:52;;;;;;;10.70;9.30;;;;;;;;;;10047599;28;20421;-70
2024/03/26 16:00:44;;;;;;;10.85;9.27;;;;;;;;;;10043342;28;20409;-70
2024/03/26 16:05:37;;;;;;;8.20;7.32;;;;;;;;;;10046086;28;20095;-70
2024/03/26 16:10:29;;;;;;;7.65;6.95;;;;;;;;;;10043524;28;20091;-69
2024/03/26 16:15:22;;;;;;;11.32;9.63;;;;;;;;;;10039356;28;20107;-69
2024/03/26 16:20:13;;;;;;;8.60;7.68;;;;;;;;;;10039378;28;20065;-69
2024/03/26 16:25:08;;;;;;;9.00;8.10;;;;;;;;;;10045442;28;20061;-70
2024/03/26 16:30:00;;;;;;;10.93;8.98;;;;;;;;;;10027016;28;20052;-69
2024/03/26 16:34:52;;;;;;;10.45;8.68;;;;;;;;;;10043707;28;20056;-69
2024/03/26 16:39:45;;;;;;;11.23;8.68;;;;;;;;;;10040533;28;20052;-68
2024/03/26 16:44:39;;;;;;;10.63;9.52;;;;;;;;;;10045320;28;20107;-69
2024/03/26 16:49:32;;;;;;;9.65;8.60;;;;;;;;;;10045765;28;20053;-69
2024/03/26 16:54:25;;;;;;;11.10;10.10;;;;;;;;;;10031654;28;20469;-69
2024/03/26 16:59:17;;;;;;;8.82;8.02;;;;;;;;;;10033610;28;20053;-69
2024/03/26 17:04:10;;;;;;;8.50;7.70;;;;;;;;;;10037385;28;20170;-68
2024/03/26 17:09:06;;;;;;;9.23;8.25;;;;;;;;;;10036264;28;20053;-68
2024/03/26 17:13:59;;;;;;;7.65;6.82;;;;;;;;;;10043692;28;20425;-68
2024/03/26 17:18:53;;;;;;;11.02;9.25;;;;;;;;;;10036803;28;20490;-69
2024/03/26 17:23:45;;;;;;;11.85;9.95;;;;;;;;;;10041988;28;20045;-69
2024/03/26 17:28:37;;;;;;;9.65;8.65;;;;;;;;;;10028095;28;20042;-69
2024/03/26 17:33:29;;;;;;;7.82;7.07;;;;;;;;;;10043116;28;20060;-69
2024/03/26 17:38:22;;;;;;;9.02;8.18;;;;;;;;;;10040986;28;20072;-69
2024/03/26 17:43:14;;;;;;;10.68;9.60;;;;;;;;;;10044498;28;20052;-69
2024/03/26 17:48:07;;;;;;;10.57;8.75;;;;;;;;;;10037266;28;20049;-69
2024/03/26 17:53:00;;;;;;;8.90;7.85;;;;;;;;;;10044237;28;20099;-69
2024/03/26 17:57:52;;;;;;;10.07;9.02;;;;;;;;;;10045164;28;20057;-70
2024/03/26 18:02:48;;;;;;;12.23;9.75;;;;;;;;;;10045963;28;20052;-70
2024/03/26 18:07:44;;;;;;;10.27;8.57;;;;;;;;;;10040017;28;20050;-70
2024/03/26 18:12:36;;;;;;;10.70;9.70;;;;;;;;;;10044381;28;20042;-70
2024/03/26 18:17:28;;;;;;;12.55;11.20;;;;;;;;;;10042262;28;20089;-71
2024/03/26 18:22:21;;;;;;;14.20;12.90;;;;;;;;;;10038779;28;20081;-71
2024/03/26 18:27:14;;;;;;;14.13;12.63;;;;;;;;;;10047516;28;20042;-71
2024/03/26 18:32:07;;;;;;;15.05;13.52;;;;;;;;;;10042843;28;20048;-72
2024/03/26 18:36:59;;;;;;;17.27;14.68;;;;;;;;;;10043785;28;20056;-71
2024/03/26 18:41:52;;;;;;;17.50;15.60;;;;;;;;;;10038582;28;20045;-72
2024/03/26 18:46:45;;;;;;;16.85;15.15;;;;;;;;;;10041159;28;20046;-71
2024/03/26 18:51:37;;;;;;;16.00;13.60;;;;;;;;;;10039621;28;20061;-71
2024/03/26 18:56:30;;;;;;;16.85;14.88;;;;;;;;;;10037017;28;20121;-72
2024/03/26 19:01:24;;;;;;;17.20;15.57;;;;;;;;;;10042271;28;20069;-71
2024/03/26 19:06:17;;;;;;;19.75;17.75;;;;;;;;;;10037907;28;20042;-72
2024/03/26 19:11:10;;;;;;;17.88;15.98;;;;;;;;;;10036951;28;20484;-72
2024/03/26 19:16:04;;;;;;;20.27;16.42;;;;;;;;;;10031612;28;20096;-71
2024/03/26 19:20:58;;;;;;;17.58;15.65;;;;;;;;;;10026119;28;20041;-72
2024/03/26 19:26:10;;;;;;;19.42;17.35;;;;;;;;;;10042205;28;20049;-72
2024/03/26 19:31:06;;;;;;;23.33;20.45;;;;;;;;;;10043223;28;20421;-71
2024/03/26 19:36:10;;;;;;;35.53;29.00;;;;;;;;;;10046265;28;20610;-72
2024/03/26 19:41:06;;;;;;;27.40;24.27;;;;;;;;;;10040020;28;20056;-72
2024/03/26 19:46:09;;;;;;;29.83;25.38;;;;;;;;;;10042691;28;20111;-72
2024/03/26 19:51:02;;;;;;;25.55;20.85;;;;;;;;;;10046169;28;20572;-71
2024/03/26 19:55:55;;;;;;;25.58;22.30;;;;;;;;;;10021433;28;20409;-74
2024/03/26 20:00:47;;;;;;;27.27;22.00;;;;;;;;;;10034719;28;20046;-73
2024/03/26 20:05:40;;;;;;;22.15;19.85;;;;;;;;;;10046866;28;20045;-73
2024/03/26 20:10:41;;;;;;;25.58;22.88;;;;;;;;;;10042211;28;20490;-73
2024/03/26 20:15:42;;;;;;;26.48;23.65;;;;;;;;;;10044428;28;20053;-73
2024/03/26 20:20:34;;;;;;;18.35;16.45;;;;;;;;;;10041122;28;20072;-74
2024/03/26 20:25:27;;;;;;;18.92;16.90;;;;;;;;;;10046669;28;20038;-73
2024/03/26 20:30:20;;;;;;;25.92;23.13;;;;;;;;;;10037501;28;20159;-73
2024/03/26 20:35:13;;;;;;;16.80;14.80;;;;;;;;;;10048214;28;20049;-74
2024/03/26 20:40:10;;;;;;;15.88;14.25;;;;;;;;;;10044238;28;20152;-71
2024/03/26 20:45:02;;;;;;;16.48;14.73;;;;;;;;;;10033172;28;20041;-73
2024/03/26 20:49:55;;;;;;;13.85;12.45;;;;;;;;;;10038384;28;20042;-73
2024/03/26 20:54:49;;;;;;;22.02;19.15;;;;;;;;;;10039934;28;20045;-72
2024/03/26 20:59:41;;;;;;;19.42;16.38;;;;;;;;;;10046286;28;20041;-72
2024/03/26 21:04:35;;;;;;;19.75;17.38;;;;;;;;;;10042839;28;20076;-71
2024/03/26 21:09:28;;;;;;;21.73;18.58;;;;;;;;;;10030038;28;20148;-73
2024/03/26 21:14:20;;;;;;;26.00;21.40;;;;;;;;;;10035729;28;20570;-73
2024/03/26 21:19:13;;;;;;;21.05;18.63;;;;;;;;;;10031654;28;20470;-73
2024/03/26 21:24:06;;;;;;;25.73;21.13;;;;;;;;;;10040222;28;20061;-73
2024/03/26 21:28:58;;;;;;;23.50;19.88;;;;;;;;;;10042827;28;20087;-72
2024/03/26 21:33:51;;;;;;;20.17;18.10;;;;;;;;;;10047321;28;20406;-73
2024/03/26 21:38:44;;;;;;;20.15;17.20;;;;;;;;;;10045268;28;20069;-74
2024/03/26 21:43:36;;;;;;;21.77;15.98;;;;;;;;;;10038750;28;20042;-75
2024/03/26 21:48:30;;;;;;;23.33;18.13;;;;;;;;;;10030192;28;20446;-73
2024/03/26 21:53:22;;;;;;;22.90;19.13;;;;;;;;;;10037871;28;20413;-73
2024/03/26 21:58:14;;;;;;;27.55;21.02;;;;;;;;;;10042850;28;20525;-74
2024/03/26 22:03:07;;;;;;;23.52;18.35;;;;;;;;;;10033019;28;20497;-71
2024/03/26 22:08:01;;;;;;;20.23;17.60;;;;;;;;;;10036748;28;20136;-71
2024/03/26 22:12:53;;;;;;;22.52;17.40;;;;;;;;;;10043162;28;20048;-71
2024/03/26 22:17:46;;;;;;;24.67;20.17;;;;;;;;;;10038799;28;20139;-72
2024/03/26 22:22:39;;;;;;;24.08;19.90;;;;;;;;;;10039603;28;20099;-71
2024/03/26 22:27:31;;;;;;;17.25;14.85;;;;;;;;;;10033396;28;20081;-71
2024/03/26 22:32:24;;;;;;;19.83;14.45;;;;;;;;;;10029074;28;20132;-71
2024/03/26 22:37:17;;;;;;;16.60;14.88;;;;;;;;;;10044593;28;20053;-71
2024/03/26 22:42:09;;;;;;;17.00;13.52;;;;;;;;;;10044733;28;20060;-71
2024/03/26 22:47:01;;;;;;;15.45;12.90;;;;;;;;;;10045172;28;20132;-70
2024/03/26 22:51:54;;;;;;;14.60;12.68;;;;;;;;;;10040868;28;20065;-71
2024/03/26 22:56:46;;;;;;;15.60;12.75;;;;;;;;;;10045347;28;20092;-71
2024/03/26 23:01:39;;;;;;;14.50;12.95;;;;;;;;;;10046348;28;20136;-71
2024/03/26 23:06:32;;;;;;;15.18;13.63;;;;;;;;;;10042867;28;20045;-71
2024/03/26 23:11:27;;;;;;;16.02;14.45;;;;;;;;;;10047199;28;20042;-71
2024/03/26 23:16:20;;;;;;;22.27;16.25;;;;;;;;;;10052466;28;20064;-72
2024/03/26 23:21:12;;;;;;;26.33;16.10;;;;;;;;;;10041837;28;20394;-72
2024/03/26 23:26:05;;;;;;;23.77;18.08;;;;;;;;;;10047194;28;20053;-71
2024/03/26 23:30:57;;;;;;;21.02;16.02;;;;;;;;;;10050845;28;20049;-71
2024/03/26 23:35:49;;;;;;;31.17;18.20;;;;;;;;;;10046301;28;20076;-71
2024/03/26 23:40:42;;;;;;;29.17;20.20;;;;;;;;;;10031193;28;20050;-70
2024/03/26 23:45:35;;;;;;;19.08;16.63;;;;;;;;;;10038812;28;20042;-71
2024/03/26 23:50:28;;;;;;;22.40;17.67;;;;;;;;;;10051236;28;20045;-71
2024/03/26 23:55:20;;;;;;;26.88;18.83;;;;;;;;;;10031560;28;20042;-71
